Time;durP1;ratioP1;P1;durP2;ratioP2;P2;SDS_P1;SDS_P2;PMS_P1;PMS_P2;Temp;Humidity;BMP_temperature;BMP_pressure;BME280_temperature;BME280_humidity;BME280_pressure;Samples;Min_cycle;Max_cycle;Signal;HPM_P1;HPM_P2
2021/03/23 00:00:33;;;;;;;4.88;3.83;;;7.00;99.90;;;;;;5090640;28;20304;-74
2021/03/23 00:03:11;;;;;;;5.22;3.95;;;7.00;99.90;;;;;;5084923;28;20051;-73
2021/03/23 00:05:37;;;;;;;5.55;3.65;;;7.00;99.90;;;;;;5099321;28;20020;-73
2021/03/23 00:08:28;;;;;;;9.13;3.95;;;7.00;99.90;;;;;;5099522;28;20032;-72
2021/03/23 00:10:56;;;;;;;6.30;3.63;;;7.00;99.90;;;;;;5081618;28;20036;-74
2021/03/23 00:13:22;;;;;;;5.10;3.60;;;7.00;99.90;;;;;;5099987;28;20032;-72
2021/03/23 00:15:48;;;;;;;9.55;4.28;;;7.00;99.90;;;;;;5100377;28;20031;-72
2021/03/23 00:18:15;;;;;;;4.90;3.90;;;6.90;99.90;;;;;;5096569;28;20024;-72
2021/03/23 00:20:41;;;;;;;12.30;4.13;;;6.90;99.90;;;;;;5097821;28;20021;-72
2021/03/23 00:23:08;;;;;;;7.20;3.72;;;6.90;99.90;;;;;;5099153;28;20030;-71
2021/03/23 00:25:34;;;;;;;8.60;3.80;;;6.90;99.90;;;;;;5100378;28;20036;-73
2021/03/23 00:28:01;;;;;;;6.10;3.55;;;6.80;99.90;;;;;;5098422;28;20038;-72
2021/03/23 00:30:27;;;;;;;5.53;3.88;;;6.80;99.90;;;;;;5095470;28;20024;-72
2021/03/23 00:32:53;;;;;;;5.93;3.00;;;6.80;99.90;;;;;;5094980;28;20020;-72
2021/03/23 00:35:19;;;;;;;8.75;3.78;;;6.80;99.90;;;;;;5101149;28;20093;-72
2021/03/23 00:37:50;;;;;;;7.82;3.97;;;6.80;99.90;;;;;;5101357;28;20028;-71
2021/03/23 00:40:21;;;;;;;4.95;3.85;;;6.80;99.90;;;;;;5090243;28;20020;-73
2021/03/23 00:42:47;;;;;;;8.73;3.87;;;6.70;99.90;;;;;;5105472;28;20076;-72
2021/03/23 00:45:13;;;;;;;8.65;3.97;;;6.70;99.90;;;;;;5106043;28;20039;-72
2021/03/23 00:47:39;;;;;;;5.65;3.35;;;6.70;99.90;;;;;;5106353;28;20028;-72
2021/03/23 00:50:05;;;;;;;6.00;4.90;;;6.70;99.90;;;;;;5100913;28;20020;-72
2021/03/23 00:52:31;;;;;;;5.15;3.97;;;6.70;99.90;;;;;;5090910;28;20046;-71
2021/03/23 00:54:57;;;;;;;7.38;3.38;;;6.60;99.90;;;;;;5098379;28;20024;-71
2021/03/23 00:57:23;;;;;;;4.53;3.38;;;6.70;99.90;;;;;;5099799;28;20032;-71
2021/03/23 00:59:49;;;;;;;6.88;3.65;;;6.70;99.90;;;;;;5100415;28;20364;-71
2021/03/23 01:02:15;;;;;;;4.10;3.67;;;6.70;99.90;;;;;;5093900;28;20050;-70
2021/03/23 01:04:40;;;;;;;7.40;3.20;;;6.70;99.90;;;;;;5098906;28;20032;-71
2021/03/23 01:07:06;;;;;;;6.28;4.55;;;6.70;99.90;;;;;;5093808;28;20165;-71
2021/03/23 01:09:32;;;;;;;4.55;3.90;;;6.70;99.90;;;;;;5099642;28;20019;-71
2021/03/23 01:11:58;;;;;;;4.47;3.45;;;6.70;99.90;;;;;;5099102;28;20062;-72
2021/03/23 01:14:23;;;;;;;4.40;2.90;;;6.80;99.90;;;;;;5093582;28;20064;-72
2021/03/23 01:16:49;;;;;;;6.90;5.30;;;6.80;99.90;;;;;;5094702;28;20028;-72
2021/03/23 01:19:15;;;;;;;5.00;2.95;;;6.80;99.90;;;;;;5098957;28;20028;-72
2021/03/23 01:21:41;;;;;;;4.00;2.60;;;6.80;99.90;;;;;;5099623;28;20273;-72
2021/03/23 01:24:08;;;;;;;4.63;3.03;;;6.80;99.90;;;;;;5083790;28;20047;-71
2021/03/23 01:26:34;;;;;;;4.68;2.90;;;6.80;99.90;;;;;;5100127;28;20016;-71
2021/03/23 01:28:59;;;;;;;4.70;3.22;;;6.80;99.90;;;;;;5099387;28;20162;-70
2021/03/23 01:31:26;;;;;;;7.70;3.15;;;6.70;99.90;;;;;;5098982;28;20028;-70
2021/03/23 01:33:51;;;;;;;4.13;3.30;;;6.70;99.90;;;;;;5098681;28;20031;-71
2021/03/23 01:36:17;;;;;;;6.10;3.60;;;6.70;99.90;;;;;;5081740;28;20036;-70
2021/03/23 01:38:43;;;;;;;5.43;2.78;;;6.70;99.90;;;;;;5100421;28;20027;-71
2021/03/23 01:41:09;;;;;;;4.55;2.75;;;6.80;99.90;;;;;;5099088;28;20168;-71
2021/03/23 01:43:36;;;;;;;3.67;2.83;;;6.80;99.90;;;;;;5083442;28;20024;-71
2021/03/23 01:46:32;;;;;;;4.70;3.22;;;6.70;99.90;;;;;;5082227;28;20016;-70
2021/03/23 01:49:00;;;;;;;5.55;3.17;;;6.70;99.90;;;;;;5087441;28;20028;-72
2021/03/23 01:51:26;;;;;;;7.53;2.78;;;6.70;99.90;;;;;;5097056;28;20028;-71
2021/03/23 01:53:58;;;;;;;3.30;2.72;;;6.70;99.90;;;;;;5098249;28;20110;-71
2021/03/23 01:56:24;;;;;;;3.08;2.40;;;6.70;99.90;;;;;;5093861;28;20016;-72
2021/03/23 01:58:51;;;;;;;15.25;3.95;;;6.70;99.90;;;;;;5097010;28;20024;-71
2021/03/23 02:01:19;;;;;;;4.13;2.60;;;6.70;99.90;;;;;;5099820;28;20034;-72
2021/03/23 02:03:46;;;;;;;3.55;2.80;;;6.70;99.90;;;;;;5097081;28;20111;-72
2021/03/23 02:06:30;;;;;;;11.20;3.28;;;6.70;99.90;;;;;;5098863;28;20028;-72
2021/03/23 02:08:58;;;;;;;4.68;2.45;;;6.80;99.90;;;;;;5101406;28;20052;-72
2021/03/23 02:11:24;;;;;;;6.65;2.88;;;6.70;99.90;;;;;;5098487;28;20024;-72
2021/03/23 02:13:52;;;;;;;3.50;2.60;;;6.80;99.90;;;;;;5093391;28;20020;-71
2021/03/23 02:16:17;;;;;;;2.80;2.30;;;6.80;99.90;;;;;;5099049;28;20024;-72
2021/03/23 02:18:43;;;;;;;3.05;2.40;;;6.80;99.90;;;;;;5101360;28;20363;-72
2021/03/23 02:21:13;;;;;;;12.05;4.25;;;6.80;99.90;;;;;;5099792;28;20032;-71
2021/03/23 02:23:40;;;;;;;3.90;2.45;;;6.80;99.90;;;;;;5098579;28;20031;-72
2021/03/23 02:26:09;;;;;;;4.00;1.60;;;6.80;99.90;;;;;;5100657;28;20004;-72
2021/03/23 02:29:04;;;;;;;2.53;2.03;;;6.80;99.90;;;;;;5099538;28;20019;-72
2021/03/23 02:31:37;;;;;;;12.05;2.70;;;6.80;99.90;;;;;;5096004;28;20020;-72
2021/03/23 02:34:08;;;;;;;8.25;3.65;;;6.80;99.90;;;;;;5103781;28;20535;-71
2021/03/23 02:36:35;;;;;;;3.05;2.15;;;6.80;99.90;;;;;;5101131;28;20048;-72
2021/03/23 02:39:02;;;;;;;4.40;2.85;;;6.80;99.90;;;;;;5099966;28;20039;-72
2021/03/23 02:41:28;;;;;;;4.85;2.97;;;6.80;99.90;;;;;;5101927;28;20052;-72
2021/03/23 02:43:54;;;;;;;3.55;2.63;;;6.90;99.90;;;;;;5100945;28;22006;-72
2021/03/23 02:46:20;;;;;;;9.27;4.00;;;6.90;99.90;;;;;;5099215;28;20024;-71
2021/03/23 02:48:46;;;;;;;4.45;2.72;;;6.80;99.90;;;;;;5101044;28;20020;-69
2021/03/23 02:51:16;;;;;;;4.97;2.47;;;6.80;99.90;;;;;;5099838;28;20028;-70
2021/03/23 02:53:43;;;;;;;4.47;2.95;;;6.80;99.90;;;;;;5100951;28;20110;-70
2021/03/23 02:56:09;;;;;;;4.30;2.25;;;6.80;99.90;;;;;;5100027;28;20023;-72
2021/03/23 02:58:35;;;;;;;3.30;1.98;;;6.90;99.90;;;;;;5096258;28;20077;-71
2021/03/23 03:01:03;;;;;;;4.60;2.83;;;6.90;99.90;;;;;;5096945;28;20055;-71
2021/03/23 03:03:29;;;;;;;3.15;1.98;;;6.90;99.90;;;;;;5130069;27;20082;-71
2021/03/23 03:05:55;;;;;;;5.25;2.22;;;6.90;99.90;;;;;;5101522;28;20039;-71
2021/03/23 03:08:22;;;;;;;3.35;2.60;;;6.90;99.90;;;;;;5101012;28;20020;-70
2021/03/23 03:10:48;;;;;;;7.78;2.35;;;6.90;99.90;;;;;;5094901;28;20017;-71
2021/03/23 03:13:14;;;;;;;5.80;1.88;;;6.90;99.90;;;;;;5098923;28;20119;-71
2021/03/23 03:15:42;;;;;;;5.25;3.15;;;7.00;99.90;;;;;;5107326;28;20089;-72
2021/03/23 03:18:08;;;;;;;3.60;2.50;;;6.90;99.90;;;;;;5103884;28;20079;-70
2021/03/23 03:20:34;;;;;;;5.95;2.85;;;6.90;99.90;;;;;;5103221;28;20028;-71
2021/03/23 03:23:00;;;;;;;3.13;2.22;;;6.90;99.90;;;;;;5099769;28;20169;-72
2021/03/23 03:25:25;;;;;;;6.40;2.53;;;6.90;99.90;;;;;;5098027;28;20021;-72
2021/03/23 03:27:51;;;;;;;4.53;3.05;;;6.90;99.90;;;;;;5097835;28;20034;-72
2021/03/23 03:30:30;;;;;;;9.13;3.22;;;6.90;99.90;;;;;;5100459;28;20031;-71
2021/03/23 03:32:57;;;;;;;5.32;2.22;;;6.90;99.90;;;;;;5088521;28;20024;-71
2021/03/23 03:35:26;;;;;;;3.03;2.58;;;6.90;99.90;;;;;;5090524;28;20467;-71
2021/03/23 03:37:52;;;;;;;6.10;2.38;;;6.80;99.90;;;;;;5089996;28;20024;-71
2021/03/23 03:40:29;;;;;;;4.93;2.47;;;6.80;99.90;;;;;;5091303;28;20024;-71
2021/03/23 03:42:55;;;;;;;3.30;2.38;;;6.80;99.90;;;;;;5095686;28;20451;-72
2021/03/23 03:45:23;;;;;;;8.25;3.10;;;6.80;99.90;;;;;;5095123;28;20055;-72
2021/03/23 03:47:53;;;;;;;3.60;1.88;;;6.80;99.90;;;;;;5095192;28;20024;-71
2021/03/23 03:50:20;;;;;;;4.95;2.47;;;6.70;99.90;;;;;;5094262;28;20016;-71
2021/03/23 03:52:46;;;;;;;3.22;2.42;;;6.70;99.90;;;;;;5089939;28;20399;-71
2021/03/23 03:55:18;;;;;;;2.42;2.22;;;6.70;99.90;;;;;;5094306;28;20052;-70
2021/03/23 03:57:43;;;;;;;4.80;2.70;;;6.70;99.90;;;;;;5092375;28;20141;-72
2021/03/23 04:00:10;;;;;;;3.50;2.58;;;6.70;99.90;;;;;;5093010;28;20020;-72
2021/03/23 04:02:36;;;;;;;6.72;2.47;;;6.70;99.90;;;;;;5090172;28;20017;-71
2021/03/23 04:05:04;;;;;;;9.57;2.83;;;6.60;99.90;;;;;;5094191;28;20390;-72
2021/03/23 04:07:31;;;;;;;3.50;2.22;;;6.70;99.90;;;;;;5096169;28;20511;-71
2021/03/23 04:09:57;;;;;;;4.00;2.50;;;6.60;99.90;;;;;;5096040;28;20451;-72
2021/03/23 04:12:23;;;;;;;4.65;2.80;;;6.60;99.90;;;;;;5087770;28;20031;-72
2021/03/23 04:14:48;;;;;;;3.63;2.63;;;6.60;99.90;;;;;;5095700;28;20042;-71
2021/03/23 04:17:14;;;;;;;5.82;2.67;;;6.60;99.90;;;;;;5094216;28;20025;-71
2021/03/23 04:19:40;;;;;;;3.65;2.72;;;6.50;99.90;;;;;;5095633;28;20084;-73
2021/03/23 04:22:06;;;;;;;7.22;2.20;;;6.50;99.90;;;;;;5087680;28;20028;-71
2021/03/23 04:24:31;;;;;;;6.65;3.72;;;6.60;99.90;;;;;;5096172;28;20530;-72
2021/03/23 04:26:58;;;;;;;6.88;2.20;;;6.60;99.90;;;;;;5096484;28;20076;-71
2021/03/23 04:29:24;;;;;;;3.40;2.00;;;6.50;99.90;;;;;;5095897;28;20028;-72
2021/03/23 04:31:50;;;;;;;3.08;1.92;;;6.50;99.90;;;;;;5097671;28;20027;-72
2021/03/23 04:34:16;;;;;;;4.28;2.38;;;6.50;99.90;;;;;;5097139;28;20028;-72
2021/03/23 04:36:43;;;;;;;7.03;2.55;;;6.50;99.90;;;;;;5095037;28;20058;-71
2021/03/23 04:39:11;;;;;;;5.00;2.83;;;6.40;99.90;;;;;;5090830;28;20047;-71
2021/03/23 04:41:38;;;;;;;5.38;3.45;;;6.40;99.90;;;;;;5097206;28;20020;-71
2021/03/23 04:44:05;;;;;;;5.65;2.08;;;6.30;99.90;;;;;;5096439;28;20035;-71
2021/03/23 04:46:30;;;;;;;5.57;3.03;;;6.40;99.90;;;;;;5091270;28;20464;-72
2021/03/23 04:48:57;;;;;;;7.65;3.22;;;6.40;99.90;;;;;;5092869;28;20024;-71
2021/03/23 04:51:26;;;;;;;6.68;3.85;;;6.40;99.90;;;;;;5089751;28;20032;-72
2021/03/23 04:54:04;;;;;;;4.25;2.28;;;6.30;99.90;;;;;;5097170;28;20418;-71
2021/03/23 04:56:33;;;;;;;5.20;2.50;;;6.30;99.90;;;;;;5097777;28;20032;-71
2021/03/23 04:59:00;;;;;;;5.13;2.83;;;6.40;99.90;;;;;;5097662;28;20039;-72
2021/03/23 05:01:26;;;;;;;5.72;2.45;;;6.30;99.90;;;;;;5096958;28;20443;-73
2021/03/23 05:03:54;;;;;;;6.25;2.53;;;6.30;99.90;;;;;;5091013;28;20532;-73
2021/03/23 05:06:21;;;;;;;5.07;2.53;;;6.30;99.90;;;;;;5097423;28;20035;-71
2021/03/23 05:08:47;;;;;;;5.15;2.78;;;6.30;99.90;;;;;;5092688;28;20028;-72
2021/03/23 05:11:15;;;;;;;6.00;3.20;;;6.30;99.90;;;;;;5097267;28;20020;-72
2021/03/23 05:13:42;;;;;;;3.65;2.75;;;6.30;99.90;;;;;;5097916;28;20078;-71
2021/03/23 05:16:08;;;;;;;7.15;3.67;;;6.30;99.90;;;;;;5091098;28;20480;-71
2021/03/23 05:18:34;;;;;;;11.43;2.88;;;6.20;99.90;;;;;;5096810;28;20020;-71
2021/03/23 05:21:00;;;;;;;4.55;2.42;;;6.20;99.90;;;;;;5097748;28;20031;-73
2021/03/23 05:23:26;;;;;;;6.93;2.53;;;6.30;99.90;;;;;;5094006;28;20024;-72
2021/03/23 05:25:52;;;;;;;8.40;5.30;;;6.30;99.90;;;;;;5090255;28;20023;-72
2021/03/23 05:28:19;;;;;;;3.97;2.47;;;6.30;99.90;;;;;;5094712;28;20028;-72
2021/03/23 05:30:45;;;;;;;8.45;3.35;;;6.40;99.90;;;;;;5097367;28;20347;-71
2021/03/23 05:33:12;;;;;;;8.15;4.25;;;6.40;99.90;;;;;;5079570;28;20028;-71
2021/03/23 05:35:38;;;;;;;5.50;3.35;;;6.40;99.90;;;;;;5089894;28;20064;-71
2021/03/23 05:38:05;;;;;;;6.78;3.08;;;6.40;99.90;;;;;;5096512;28;20024;-71
2021/03/23 05:40:32;;;;;;;7.22;3.13;;;6.30;99.90;;;;;;5096206;28;20020;-71
2021/03/23 05:43:20;;;;;;;2.65;2.42;;;6.30;99.90;;;;;;5097123;28;20053;-71
2021/03/23 05:45:48;;;;;;;5.53;2.50;;;6.40;99.90;;;;;;5098268;28;20540;-72
2021/03/23 05:48:19;;;;;;;5.20;2.63;;;6.40;99.90;;;;;;5097720;28;20103;-73
2021/03/23 05:51:01;;;;;;;6.78;2.95;;;6.40;99.90;;;;;;5124670;27;20054;-71
2021/03/23 05:53:50;;;;;;;5.20;2.63;;;6.50;99.90;;;;;;5127720;27;20119;-71
2021/03/23 05:56:18;;;;;;;3.20;2.13;;;6.50;99.90;;;;;;5143413;27;20043;-72
2021/03/23 05:58:51;;;;;;;3.25;2.47;;;6.50;99.90;;;;;;5158337;27;20704;-72
2021/03/23 06:01:29;;;;;;;7.13;3.55;;;6.50;99.90;;;;;;5106735;27;20027;-72
2021/03/23 06:04:25;;;;;;;4.22;2.60;;;6.50;99.90;;;;;;4980367;28;20044;-73
2021/03/23 06:07:01;;;;;;;7.35;2.72;;;6.60;99.90;;;;;;4854645;29;20393;-71
2021/03/23 06:09:31;;;;;;;2.85;2.28;;;6.60;99.90;;;;;;4738193;30;20037;-72
2021/03/23 06:12:09;;;;;;;8.95;3.55;;;6.60;99.90;;;;;;4697204;30;20102;-72
2021/03/23 06:16:59;;;;;;;5.30;2.60;;;6.70;99.90;;;;;;5155155;27;20129;-72
2021/03/23 06:19:36;;;;;;;7.40;3.67;;;6.80;99.90;;;;;;5104267;28;20050;-71
2021/03/23 06:22:18;;;;;;;9.18;2.35;;;6.80;99.90;;;;;;5065416;28;20033;-73
2021/03/23 06:24:54;;;;;;;3.08;2.60;;;6.80;99.90;;;;;;5077800;28;20028;-72
2021/03/23 06:27:35;;;;;;;4.45;2.72;;;6.90;99.90;;;;;;5036924;28;20033;-72
2021/03/23 06:30:22;;;;;;;10.93;2.83;;;6.90;99.90;;;;;;5051002;28;20026;-71
2021/03/23 06:32:51;;;;;;;7.10;2.97;;;7.00;99.90;;;;;;4857018;28;20047;-72
2021/03/23 06:35:27;;;;;;;4.97;3.30;;;7.00;99.90;;;;;;4606119;30;20118;-73
2021/03/23 06:39:43;;;;;;;4.25;2.60;;;7.10;99.90;;;;;;5142950;27;20143;-72
2021/03/23 06:42:09;;;;;;;5.93;3.55;;;7.20;99.90;;;;;;5144661;27;20380;-71
2021/03/23 06:44:40;;;;;;;9.85;3.45;;;7.20;99.90;;;;;;5144842;27;20040;-72
2021/03/23 06:47:26;;;;;;;6.78;3.03;;;7.30;99.90;;;;;;5091469;28;20025;-70
2021/03/23 06:49:51;;;;;;;6.03;3.00;;;7.40;99.90;;;;;;5008059;28;20087;-71
2021/03/23 06:52:23;;;;;;;5.80;3.17;;;7.40;99.90;;;;;;4959003;28;20023;-71
2021/03/23 06:55:23;;;;;;;6.03;3.97;;;7.50;99.90;;;;;;4893199;29;20159;-71
2021/03/23 06:57:49;;;;;;;6.05;3.30;;;7.60;99.90;;;;;;4678179;29;20071;-71
2021/03/23 07:02:03;;;;;;;8.65;3.75;;;7.60;99.90;;;;;;5089736;27;20764;-65
2021/03/23 07:04:35;;;;;;;4.05;2.92;;;7.80;99.90;;;;;;5069302;28;20021;-66
2021/03/23 07:07:19;;;;;;;4.85;3.28;;;7.90;99.90;;;;;;5070355;28;20024;-66
2021/03/23 07:09:59;;;;;;;12.02;5.13;;;8.00;99.90;;;;;;5062409;28;20055;-66
2021/03/23 07:12:45;;;;;;;11.15;3.22;;;8.10;99.90;;;;;;5070191;28;20024;-66
2021/03/23 07:15:33;;;;;;;10.35;3.95;;;8.20;99.90;;;;;;5067984;28;20025;-67
2021/03/23 07:18:20;;;;;;;12.32;3.45;;;8.40;99.90;;;;;;5070979;28;20179;-66
2021/03/23 07:20:49;;;;;;;5.93;3.22;;;8.40;99.90;;;;;;5062115;28;20049;-66
2021/03/23 07:23:32;;;;;;;4.32;3.05;;;8.40;99.90;;;;;;5064160;28;20040;-67
2021/03/23 07:26:15;;;;;;;7.15;3.58;;;8.50;99.90;;;;;;5067484;28;20031;-67
2021/03/23 07:28:43;;;;;;;3.80;2.90;;;8.50;99.90;;;;;;5071802;28;20024;-67
2021/03/23 07:31:30;;;;;;;8.18;3.10;;;8.60;99.90;;;;;;5068004;28;20033;-67
2021/03/23 07:34:24;;;;;;;4.32;3.80;;;8.60;99.90;;;;;;5066614;28;20827;-69
2021/03/23 07:37:04;;;;;;;4.22;3.20;;;8.80;99.90;;;;;;5072051;28;20085;-66
2021/03/23 07:39:42;;;;;;;4.10;3.13;;;8.90;99.90;;;;;;5086311;28;20032;-67
2021/03/23 07:42:32;;;;;;;7.95;2.90;;;9.10;99.30;;;;;;5070310;28;20017;-67
2021/03/23 07:45:17;;;;;;;7.00;3.80;;;9.10;99.30;;;;;;5067503;28;20032;-67
2021/03/23 07:48:14;;;;;;;5.07;3.70;;;9.10;99.30;;;;;;5064781;28;20437;-66
2021/03/23 07:50:46;;;;;;;5.07;2.63;;;9.20;98.80;;;;;;5057994;28;20045;-69
2021/03/23 07:53:43;;;;;;;10.25;3.95;;;9.20;98.70;;;;;;5061957;28;20426;-69
2021/03/23 07:56:38;;;;;;;6.07;3.00;;;9.00;98.30;;;;;;5064045;28;20051;-70
2021/03/23 07:59:14;;;;;;;5.03;2.60;;;8.90;98.50;;;;;;5069412;28;20483;-70
2021/03/23 08:01:55;;;;;;;6.07;2.90;;;9.00;98.40;;;;;;5121429;27;20035;-70
2021/03/23 08:04:47;;;;;;;6.00;3.22;;;9.10;98.90;;;;;;5108039;28;20354;-69
2021/03/23 08:07:21;;;;;;;10.80;3.67;;;9.20;99.10;;;;;;5074780;28;20040;-72
2021/03/23 08:10:11;;;;;;;6.30;3.75;;;9.30;98.80;;;;;;5063095;28;20041;-68
2021/03/23 08:12:51;;;;;;;4.60;2.78;;;9.50;98.90;;;;;;4977372;28;20392;-72
2021/03/23 08:15:41;;;;;;;10.63;3.10;;;9.50;97.90;;;;;;4895438;29;20061;-68
2021/03/23 08:18:32;;;;;;;8.65;3.67;;;9.50;97.80;;;;;;4785171;29;20044;-73
2021/03/23 08:21:00;;;;;;;7.53;3.10;;;9.60;98.10;;;;;;4536973;31;20092;-72
2021/03/23 08:25:50;;;;;;;5.85;2.58;;;9.60;97.50;;;;;;5146327;27;20125;-69
2021/03/23 08:28:23;;;;;;;4.45;3.30;;;9.40;97.50;;;;;;5104157;27;20090;-70
2021/03/23 08:31:03;;;;;;;7.50;2.72;;;9.60;97.70;;;;;;5086281;28;20046;-69
2021/03/23 08:33:52;;;;;;;5.78;2.65;;;9.70;97.40;;;;;;5031864;28;20036;-70
2021/03/23 08:37:02;;;;;;;5.57;2.85;;;9.70;97.10;;;;;;4963656;28;20054;-71
2021/03/23 08:39:42;;;;;;;5.80;2.58;;;9.70;97.00;;;;;;4824837;29;20043;-69
2021/03/23 08:42:27;;;;;;;5.30;4.13;;;9.70;96.50;;;;;;4750344;29;20036;-69
2021/03/23 08:45:00;;;;;;;6.00;2.88;;;9.70;96.70;;;;;;4636750;30;20055;-70
2021/03/23 08:48:55;;;;;;;4.00;2.53;;;9.80;96.30;;;;;;5139131;27;20134;-69
2021/03/23 08:51:24;;;;;;;6.00;2.95;;;10.10;95.80;;;;;;5120639;27;20019;-68
2021/03/23 08:54:04;;;;;;;4.40;2.80;;;10.30;95.60;;;;;;5150884;27;20031;-69
2021/03/23 08:56:44;;;;;;;4.32;3.20;;;10.30;96.30;;;;;;5112857;28;20242;-70
2021/03/23 08:59:35;;;;;;;9.57;3.25;;;10.30;96.80;;;;;;5052230;28;20034;-70
2021/03/23 09:02:07;;;;;;;10.10;3.50;;;10.20;97.70;;;;;;4941088;28;20036;-69
2021/03/23 09:04:35;;;;;;;5.53;2.97;;;10.10;98.60;;;;;;4882352;29;20411;-69
2021/03/23 09:07:02;;;;;;;8.63;2.97;;;10.00;97.80;;;;;;4809613;29;20039;-70
2021/03/23 09:12:28;;;;;;;7.25;2.78;;;9.90;99.00;;;;;;5137340;27;20505;-70
2021/03/23 09:15:09;;;;;;;3.65;2.10;;;9.90;99.90;;;;;;5076005;28;20027;-68
2021/03/23 09:17:56;;;;;;;4.53;2.78;;;9.80;99.20;;;;;;5087369;28;20042;-69
2021/03/23 09:20:34;;;;;;;6.60;2.45;;;9.70;99.90;;;;;;5058409;28;20113;-68
2021/03/23 09:23:21;;;;;;;6.70;2.67;;;9.60;99.90;;;;;;4969329;28;20070;-69
2021/03/23 09:25:47;;;;;;;6.28;2.65;;;9.60;99.90;;;;;;4915094;29;20040;-70
2021/03/23 09:28:34;;;;;;;6.20;2.45;;;9.60;99.90;;;;;;4896139;29;20035;-69
2021/03/23 09:31:03;;;;;;;4.97;2.35;;;9.70;99.90;;;;;;4755982;29;20614;-71
2021/03/23 09:36:14;;;;;;;4.20;2.67;;;9.60;99.90;;;;;;5126487;27;20362;-68
2021/03/23 09:38:48;;;;;;;4.68;3.50;;;9.50;99.90;;;;;;5100344;27;20164;-69
2021/03/23 09:41:23;;;;;;;8.90;3.53;;;9.40;99.90;;;;;;5118931;27;20029;-67
2021/03/23 09:44:18;;;;;;;8.68;3.85;;;9.40;99.90;;;;;;5040415;28;20034;-69
2021/03/23 09:46:45;;;;;;;11.38;3.88;;;9.50;99.90;;;;;;4964775;28;20508;-69
2021/03/23 09:49:23;;;;;;;4.82;3.72;;;9.50;99.90;;;;;;5002077;28;20496;-71
2021/03/23 09:51:57;;;;;;;8.52;4.28;;;9.50;99.90;;;;;;4865175;29;20034;-69
2021/03/23 09:57:32;;;;;;;8.00;5.13;;;9.40;99.90;;;;;;5174904;27;20483;-70
2021/03/23 10:00:00;;;;;;;6.35;3.72;;;9.30;99.90;;;;;;5152439;27;20091;-68
2021/03/23 10:02:29;;;;;;;9.90;4.55;;;9.30;99.90;;;;;;5157433;27;20085;-69
2021/03/23 10:04:55;;;;;;;8.00;6.47;;;9.30;99.90;;;;;;5152454;27;20049;-70
2021/03/23 10:07:42;;;;;;;5.95;4.50;;;9.40;99.90;;;;;;5108178;28;20482;-71
2021/03/23 10:10:27;;;;;;;8.63;4.30;;;9.30;99.90;;;;;;5090371;28;20365;-72
2021/03/23 10:12:59;;;;;;;5.82;5.25;;;9.20;99.90;;;;;;4952292;28;20431;-72
2021/03/23 10:15:39;;;;;;;4.63;4.18;;;9.30;99.90;;;;;;4876388;29;20060;-69
2021/03/23 10:20:38;;;;;;;10.15;4.97;;;9.30;99.90;;;;;;5135604;27;20477;-69
2021/03/23 10:23:05;;;;;;;11.52;5.90;;;9.40;99.90;;;;;;5107995;28;20477;-71
2021/03/23 10:25:31;;;;;;;15.75;5.47;;;9.30;99.90;;;;;;5115260;28;20047;-70
2021/03/23 10:28:05;;;;;;;10.40;5.75;;;9.40;99.90;;;;;;5114963;28;20066;-69
2021/03/23 10:30:36;;;;;;;8.70;5.63;;;9.40;99.90;;;;;;5096414;28;22625;-71
2021/03/23 10:33:21;;;;;;;6.95;4.90;;;9.30;99.90;;;;;;4991861;28;20039;-73
2021/03/23 10:35:47;;;;;;;12.95;9.55;;;9.30;99.90;;;;;;4880846;29;20480;-70
2021/03/23 10:38:14;;;;;;;9.88;5.55;;;9.30;99.90;;;;;;4802126;29;20120;-71
2021/03/23 10:43:34;;;;;;;12.90;6.20;;;9.70;99.90;;;;;;5145670;27;20493;-72
2021/03/23 10:46:20;;;;;;;9.25;6.30;;;9.70;99.90;;;;;;5130212;27;20107;-74
2021/03/23 10:48:48;;;;;;;8.48;5.95;;;9.80;99.90;;;;;;5130003;27;20023;-70
2021/03/23 10:51:26;;;;;;;10.82;6.07;;;9.90;99.90;;;;;;5142114;27;20032;-71
2021/03/23 10:54:02;;;;;;;11.98;6.15;;;10.10;99.90;;;;;;5056543;28;20821;-70
2021/03/23 10:56:33;;;;;;;12.52;6.18;;;10.10;99.90;;;;;;4990833;28;20136;-71
2021/03/23 10:59:05;;;;;;;11.18;6.20;;;10.10;99.90;;;;;;5019464;28;20041;-70
2021/03/23 11:01:30;;;;;;;20.77;6.63;;;10.30;99.90;;;;;;4894056;28;20045;-71
2021/03/23 11:05:45;;;;;;;13.95;6.05;;;10.50;99.90;;;;;;5147793;27;20130;-72
2021/03/23 11:08:13;;;;;;;12.65;6.53;;;10.60;99.90;;;;;;5112513;27;20093;-71
2021/03/23 11:10:39;;;;;;;10.40;5.93;;;10.50;99.90;;;;;;5124529;27;20130;-69
2021/03/23 11:13:05;;;;;;;11.73;5.90;;;10.50;99.90;;;;;;5130131;27;20110;-70
2021/03/23 11:15:39;;;;;;;11.77;6.18;;;10.60;99.90;;;;;;5099003;28;20123;-71
2021/03/23 11:18:14;;;;;;;9.20;6.53;;;10.70;99.90;;;;;;5051933;28;20109;-71
2021/03/23 11:20:42;;;;;;;27.98;7.70;;;10.80;99.90;;;;;;4943230;28;20078;-71
2021/03/23 11:26:18;;;;;;;16.45;7.18;;;10.80;99.90;;;;;;5144646;27;20158;-73
2021/03/23 11:28:45;;;;;;;11.27;6.95;;;10.90;99.90;;;;;;5093730;28;20129;-71
2021/03/23 11:31:16;;;;;;;19.27;7.63;;;11.00;99.90;;;;;;5125729;27;20031;-70
2021/03/23 11:33:42;;;;;;;20.27;7.90;;;11.00;99.90;;;;;;5081230;28;20381;-70
2021/03/23 11:36:08;;;;;;;10.18;6.60;;;11.00;99.90;;;;;;5065554;28;20478;-71
2021/03/23 11:38:34;;;;;;;13.35;7.70;;;11.00;99.90;;;;;;5028968;28;20034;-71
2021/03/23 11:41:03;;;;;;;17.20;6.93;;;10.90;99.90;;;;;;5028264;28;20029;-70
2021/03/23 11:43:45;;;;;;;11.05;7.63;;;10.90;99.90;;;;;;4901503;28;20065;-71
2021/03/23 11:49:58;;;;;;;20.05;10.85;;;10.70;99.90;;;;;;5141204;27;20143;-71
2021/03/23 11:52:24;;;;;;;22.55;9.02;;;10.90;99.90;;;;;;5085457;28;20487;-69
2021/03/23 11:54:51;;;;;;;17.40;8.23;;;11.00;99.90;;;;;;5120046;28;20036;-71
2021/03/23 11:57:17;;;;;;;13.88;9.52;;;11.10;99.90;;;;;;5129577;28;20031;-71
2021/03/23 11:59:43;;;;;;;14.88;8.50;;;11.10;99.90;;;;;;5117874;28;20032;-73
2021/03/23 12:02:10;;;;;;;10.30;8.30;;;11.00;99.90;;;;;;5076616;28;20037;-71
2021/03/23 12:04:36;;;;;;;16.38;8.88;;;11.00;99.90;;;;;;5045117;28;20037;-69
2021/03/23 12:07:33;;;;;;;9.63;7.35;;;11.00;99.90;;;;;;5027710;28;20036;-71
2021/03/23 12:12:47;;;;;;;12.20;8.05;;;10.90;99.90;;;;;;5134560;27;20139;-70
2021/03/23 12:15:33;;;;;;;16.67;9.02;;;11.00;99.90;;;;;;5126612;27;20106;-71
2021/03/23 12:18:07;;;;;;;17.52;9.20;;;11.10;99.90;;;;;;5124705;27;20111;-71
2021/03/23 12:20:36;;;;;;;15.95;9.50;;;11.20;99.90;;;;;;5128459;28;20035;-69
2021/03/23 12:23:03;;;;;;;19.23;11.75;;;11.20;99.90;;;;;;5075154;28;20071;-69
2021/03/23 12:25:29;;;;;;;29.40;15.05;;;11.30;99.90;;;;;;5071333;28;20501;-70
2021/03/23 12:27:56;;;;;;;21.83;12.77;;;11.30;99.90;;;;;;5039551;28;20037;-69
2021/03/23 12:30:23;;;;;;;23.38;13.80;;;11.20;99.90;;;;;;4963807;28;20449;-69
2021/03/23 12:32:49;;;;;;;12.02;8.80;;;11.00;99.90;;;;;;4969054;28;20035;-72
2021/03/23 12:36:33;;;;;;;20.45;13.38;;;11.10;99.90;;;;;;5148347;27;20130;-70
2021/03/23 12:38:59;;;;;;;28.75;15.20;;;11.20;99.90;;;;;;5144742;27;20023;-71
2021/03/23 12:41:34;;;;;;;29.67;16.40;;;11.20;99.90;;;;;;5147329;27;20081;-68
2021/03/23 12:44:00;;;;;;;31.38;11.48;;;11.20;99.90;;;;;;5122895;28;20114;-69
2021/03/23 12:46:27;;;;;;;26.73;13.55;;;11.40;99.90;;;;;;5098856;28;20106;-69
2021/03/23 12:48:53;;;;;;;31.20;13.95;;;11.50;99.90;;;;;;5093204;28;20032;-68
2021/03/23 12:51:32;;;;;;;24.55;10.15;;;11.70;99.90;;;;;;5108239;28;20388;-71
2021/03/23 12:53:58;;;;;;;14.75;9.43;;;11.70;99.90;;;;;;4936768;28;20495;-69
2021/03/23 12:56:24;;;;;;;14.45;9.57;;;11.60;99.90;;;;;;4769599;29;20102;-70
2021/03/23 13:00:26;;;;;;;18.20;11.10;;;11.20;99.90;;;;;;5143749;27;20131;-70
2021/03/23 13:02:53;;;;;;;15.95;9.85;;;10.80;99.90;;;;;;5127052;27;20035;-70
2021/03/23 13:05:19;;;;;;;12.40;8.68;;;10.70;99.90;;;;;;5128302;28;20531;-69
2021/03/23 13:07:46;;;;;;;15.70;9.38;;;10.70;99.90;;;;;;5093083;28;20024;-70
2021/03/23 13:10:33;;;;;;;12.73;7.80;;;10.80;99.90;;;;;;5099042;28;20115;-71
2021/03/23 13:13:01;;;;;;;15.27;8.98;;;10.90;99.90;;;;;;5004457;28;20042;-70
2021/03/23 13:15:28;;;;;;;26.33;9.43;;;11.00;99.90;;;;;;5004994;28;20041;-70
2021/03/23 13:17:54;;;;;;;14.60;7.65;;;11.00;99.90;;;;;;4903640;29;20063;-72
2021/03/23 13:20:20;;;;;;;9.48;6.55;;;10.80;99.90;;;;;;4830924;29;20081;-71
2021/03/23 13:24:41;;;;;;;11.73;8.88;;;10.70;99.90;;;;;;5150453;27;20126;-70
2021/03/23 13:27:18;;;;;;;12.38;5.97;;;10.70;99.90;;;;;;5117362;27;20032;-70
2021/03/23 13:29:44;;;;;;;15.50;7.93;;;11.00;99.90;;;;;;5113796;28;20031;-69
2021/03/23 13:32:10;;;;;;;14.50;6.82;;;11.00;99.90;;;;;;5081272;28;20545;-69
2021/03/23 13:34:36;;;;;;;29.30;7.65;;;11.10;99.90;;;;;;5059306;28;20104;-68
2021/03/23 13:37:05;;;;;;;15.93;6.43;;;11.30;99.90;;;;;;5027784;28;20088;-69
2021/03/23 13:39:41;;;;;;;8.13;6.45;;;11.40;99.90;;;;;;5068834;28;20044;-70
2021/03/23 13:42:07;;;;;;;8.63;6.28;;;11.30;99.90;;;;;;4954583;28;20522;-70
2021/03/23 13:47:51;;;;;;;15.57;7.55;;;11.00;99.90;;;;;;5147830;27;20386;-70
2021/03/23 13:50:21;;;;;;;17.10;7.03;;;11.00;99.90;;;;;;5096849;28;20036;-70
2021/03/23 13:52:53;;;;;;;11.13;6.03;;;11.20;99.90;;;;;;5059258;27;1569587;-70
2021/03/23 13:55:34;;;;;;;13.95;5.65;;;11.40;99.90;;;;;;4986610;28;20031;-70